Time,TemperatureF,DewpointF,PressureIn,WindDirection,WindDirectionDegrees,WindSpeedMPH,WindSpeedGustMPH,Humidity,HourlyPrecipIn,Conditions,Clouds,dailyrainin,SoftwareType,DateUTC
2013-01-18 00:04:00,30.0,0.0,30.26,NW,326,14.0,15.0,26,-99.99,,,-99.99,,2013-01-18 08:04:00,
2013-01-18 00:12:00,30.0,0.0,30.27,NW,311,13.0,14.0,26,-99.99,,,-99.99,,2013-01-18 08:12:00,
2013-01-18 00:20:00,30.0,0.0,30.27,NW,309,13.0,13.0,28,-99.99,,,-99.99,,2013-01-18 08:20:00,
2013-01-18 00:28:00,30.0,0.0,30.27,NW,311,16.0,16.0,28,-99.99,,,-99.99,,2013-01-18 08:28:00,
2013-01-18 00:36:00,29.0,0.0,30.27,NW,316,14.0,15.0,27,-99.99,,,-99.99,,2013-01-18 08:36:00,
2013-01-18 00:44:00,29.0,0.0,30.27,West,278,14.0,15.0,28,-99.99,,,-99.99,,2013-01-18 08:44:00,
2013-01-18 00:52:00,29.0,0.0,30.27,WNW,290,14.0,15.0,27,-99.99,,,-99.99,,2013-01-18 08:52:00,
2013-01-18 01:00:00,30.0,0.0,30.27,NW,304,18.0,18.0,29,-99.99,,,-99.99,,2013-01-18 09:00:00,
2013-01-18 01:08:00,30.0,0.0,30.27,NW,322,14.0,14.0,29,-99.99,,,-99.99,,2013-01-18 09:08:00,
2013-01-18 01:16:00,30.0,0.0,30.27,NW,320,14.0,14.0,29,-99.99,,,-99.99,,2013-01-18 09:16:00,
2013-01-18 01:24:00,29.0,0.0,30.27,NW,318,16.0,16.0,28,-99.99,,,-99.99,,2013-01-18 09:24:00,
2013-01-18 01:32:00,28.0,0.0,30.27,NW,311,12.0,13.0,28,-99.99,,,-99.99,,2013-01-18 09:32:00,
2013-01-18 01:40:00,28.0,0.0,30.27,NW,310,16.0,16.0,28,-99.99,,,-99.99,,2013-01-18 09:40:00,
2013-01-18 01:48:00,28.0,0.0,30.27,NW,312,13.0,13.0,31,-99.99,,,-99.99,,2013-01-18 09:48:00,
2013-01-18 01:56:00,28.0,0.0,30.27,NW,316,12.0,12.0,29,-99.99,,,-99.99,,2013-01-18 09:56:00,
2013-01-18 02:04:00,28.0,0.0,30.27,NW,322,12.0,13.0,29,-99.99,,,-99.99,,2013-01-18 10:04:00,
2013-01-18 02:12:00,28.0,0.0,30.27,NW,322,10.0,10.0,29,-99.99,,,-99.99,,2013-01-18 10:12:00,
2013-01-18 02:20:00,27.0,0.0,30.27,WNW,290,10.0,12.0,30,-99.99,,,-99.99,,2013-01-18 10:20:00,
2013-01-18 02:28:00,28.0,0.0,30.27,NW,322,12.0,14.0,32,-99.99,,,-99.99,,2013-01-18 10:28:00,
2013-01-18 02:36:00,28.0,0.0,30.27,NW,313,17.0,17.0,33,-99.99,,,-99.99,,2013-01-18 10:36:00,
2013-01-18 02:44:00,29.0,0.0,30.27,NW,317,14.0,14.0,32,-99.99,,,-99.99,,2013-01-18 10:44:00,
2013-01-18 02:52:00,29.0,0.0,30.27,NW,322,12.0,12.0,31,-99.99,,,-99.99,,2013-01-18 10:52:00,
2013-01-18 03:00:00,29.0,0.0,30.27,NW,326,10.0,10.0,31,-99.99,,,-99.99,,2013-01-18 11:00:00,
2013-01-18 03:08:00,28.0,0.0,30.27,NW,320,7.0,7.0,29,-99.99,,,-99.99,,2013-01-18 11:08:00,
2013-01-18 03:16:00,27.0,0.0,30.27,NW,320,14.0,14.0,33,-99.99,,,-99.99,,2013-01-18 11:16:00,
2013-01-18 03:24:00,27.0,0.0,30.27,WNW,301,14.0,15.0,32,-99.99,,,-99.99,,2013-01-18 11:24:00,
2013-01-18 03:32:00,26.0,0.0,30.27,NW,320,13.0,13.0,34,-99.99,,,-99.99,,2013-01-18 11:32:00,
2013-01-18 03:40:00,26.0,0.0,30.27,NW,311,8.0,10.0,36,-99.99,,,-99.99,,2013-01-18 11:40:00,
2013-01-18 03:48:00,27.0,0.0,30.26,NW,323,8.0,14.0,31,-99.99,,,-99.99,,2013-01-18 11:48:00,
2013-01-18 03:56:00,26.0,0.0,30.27,WNW,296,13.0,13.0,31,-99.99,,,-99.99,,2013-01-18 11:56:00,
2013-01-18 04:04:00,26.0,0.0,30.27,NW,314,14.0,16.0,33,-99.99,,,-99.99,,2013-01-18 12:04:00,
2013-01-18 04:12:00,27.0,0.0,30.27,NW,304,13.0,13.0,34,-99.99,,,-99.99,,2013-01-18 12:12:00,
2013-01-18 04:20:00,28.0,0.0,30.26,WNW,301,9.0,13.0,31,-99.99,,,-99.99,,2013-01-18 12:20:00,
2013-01-18 04:28:00,28.0,0.0,30.27,NW,321,7.0,7.0,31,-99.99,,,-99.99,,2013-01-18 12:28:00,
2013-01-18 04:36:00,28.0,0.0,30.26,NW,323,12.0,14.0,34,-99.99,,,-99.99,,2013-01-18 12:36:00,
2013-01-18 04:44:00,28.0,0.0,30.26,NW,324,12.0,12.0,32,-99.99,,,-99.99,,2013-01-18 12:44:00,
2013-01-18 04:52:00,28.0,0.0,30.26,NW,319,8.0,9.0,30,-99.99,,,-99.99,,2013-01-18 12:52:00,
2013-01-18 05:00:00,26.0,0.0,30.26,WNW,299,14.0,14.0,34,-99.99,,,-99.99,,2013-01-18 13:00:00,
2013-01-18 05:08:00,26.0,0.0,30.26,NW,312,12.0,14.0,32,-99.99,,,-99.99,,2013-01-18 13:08:00,
2013-01-18 05:16:00,29.0,0.0,30.26,NW,320,13.0,13.0,32,-99.99,,,-99.99,,2013-01-18 13:16:00,
2013-01-18 05:24:00,30.0,0.0,30.26,NW,324,10.0,10.0,31,-99.99,,,-99.99,,2013-01-18 13:24:00,
2013-01-18 05:32:00,29.0,0.0,30.27,NW,324,0.0,0.0,29,-99.99,,,-99.99,,2013-01-18 13:32:00,
2013-01-18 05:40:00,25.0,0.0,30.26,NW,325,1.0,2.0,34,-99.99,,,-99.99,,2013-01-18 13:40:00,
2013-01-18 05:48:00,25.0,0.0,30.26,NNW,327,2.0,2.0,34,-99.99,,,-99.99,,2013-01-18 13:48:00,
2013-01-18 05:56:00,25.0,0.0,30.26,NW,324,5.0,5.0,33,-99.99,,,-99.99,,2013-01-18 13:56:00,
2013-01-18 06:04:00,23.0,0.0,30.26,NW,311,8.0,8.0,35,-99.99,,,-99.99,,2013-01-18 14:04:00,
2013-01-18 06:12:00,24.0,0.0,30.27,NW,306,2.0,7.0,36,-99.99,,,-99.99,,2013-01-18 14:12:00,
2013-01-18 06:20:00,24.0,0.0,30.27,NW,313,10.0,10.0,34,-99.99,,,-99.99,,2013-01-18 14:20:00,
2013-01-18 06:28:00,25.0,0.0,30.27,NW,320,7.0,7.0,35,-99.99,,,-99.99,,2013-01-18 14:28:00,
2013-01-18 06:36:00,25.0,0.0,30.27,NW,319,6.0,6.0,34,-99.99,,,-99.99,,2013-01-18 14:36:00,
2013-01-18 06:44:00,26.0,0.0,30.27,NW,314,0.0,0.0,34,-99.99,,,-99.99,,2013-01-18 14:44:00,
2013-01-18 06:52:00,25.0,0.0,30.27,NW,307,1.0,2.0,34,-99.99,,,-99.99,,2013-01-18 14:52:00,
2013-01-18 07:00:00,25.0,0.0,30.27,NW,309,7.0,7.0,33,-99.99,,,-99.99,,2013-01-18 15:00:00,
2013-01-18 07:08:00,24.0,0.0,30.27,NW,304,5.0,5.0,33,-99.99,,,-99.99,,2013-01-18 15:08:00,
2013-01-18 07:16:00,23.0,0.0,30.27,NW,305,2.0,9.0,36,-99.99,,,-99.99,,2013-01-18 15:16:00,
2013-01-18 07:24:00,25.0,0.0,30.28,NW,318,2.0,2.0,34,-99.99,,,-99.99,,2013-01-18 15:24:00,
2013-01-18 07:32:00,26.0,0.0,30.28,NW,322,1.0,10.0,32,-99.99,,,-99.99,,2013-01-18 15:32:00,
2013-01-18 07:40:00,28.0,0.0,30.28,NW,311,6.0,6.0,32,-99.99,,,-99.99,,2013-01-18 15:40:00,
2013-01-18 07:48:00,31.0,0.0,30.29,NW,318,7.0,9.0,30,-99.99,,,-99.99,,2013-01-18 15:48:00,
2013-01-18 07:56:00,32.0,0.0,30.29,NW,312,10.0,10.0,28,-99.99,,,-99.99,,2013-01-18 15:56:00,
2013-01-18 08:04:00,33.0,0.0,30.29,NW,325,8.0,8.0,26,-99.99,,,-99.99,,2013-01-18 16:04:00,
2013-01-18 08:12:00,34.0,0.0,30.30,NW,321,3.0,6.0,29,-99.99,,,-99.99,,2013-01-18 16:12:00,
2013-01-18 08:20:00,37.0,0.0,30.30,NW,325,7.0,7.0,25,-99.99,,,-99.99,,2013-01-18 16:20:00,
2013-01-18 08:28:00,40.0,0.0,30.30,NW,325,0.0,0.0,24,-99.99,,,-99.99,,2013-01-18 16:28:00,
2013-01-18 08:36:00,42.0,0.0,30.31,NW,324,5.0,5.0,22,-99.99,,,-99.99,,2013-01-18 16:36:00,
2013-01-18 08:44:00,44.0,0.0,30.31,NNW,327,0.0,0.0,20,-99.99,,,-99.99,,2013-01-18 16:44:00,
2013-01-18 08:52:00,46.0,0.0,30.31,NW,324,0.0,0.0,18,-99.99,,,-99.99,,2013-01-18 16:52:00,
2013-01-18 09:00:00,47.0,0.0,30.31,NW,326,0.0,0.0,20,-99.99,,,-99.99,,2013-01-18 17:00:00,
2013-01-18 09:08:00,48.0,0.0,30.32,NW,324,0.0,0.0,20,-99.99,,,-99.99,,2013-01-18 17:08:00,
2013-01-18 09:16:00,49.0,0.0,30.32,NW,324,0.0,0.0,19,-99.99,,,-99.99,,2013-01-18 17:16:00,
2013-01-18 09:24:00,47.0,0.0,30.32,NNW,338,0.0,0.0,18,-99.99,,,-99.99,,2013-01-18 17:24:00,
2013-01-18 09:32:00,47.0,0.0,30.32,NNW,339,0.0,0.0,18,-99.99,,,-99.99,,2013-01-18 17:32:00,
2013-01-18 09:40:00,48.0,0.0,30.32,NNW,340,0.0,0.0,21,-99.99,,,-99.99,,2013-01-18 17:40:00,
2013-01-18 09:48:00,48.0,0.0,30.32,NNW,342,0.0,0.0,21,-99.99,,,-99.99,,2013-01-18 17:48:00,
2013-01-18 09:56:00,50.0,0.0,30.32,East,84,0.0,0.0,17,-99.99,,,-99.99,,2013-01-18 17:56:00,
2013-01-18 10:04:00,50.0,0.0,30.32,ESE,107,0.0,0.0,16,-99.99,,,-99.99,,2013-01-18 18:04:00,
2013-01-18 10:12:00,50.0,0.0,30.32,SE,130,0.0,0.0,20,-99.99,,,-99.99,,2013-01-18 18:12:00,
2013-01-18 10:20:00,51.0,0.0,30.32,ESE,104,0.0,0.0,18,-99.99,,,-99.99,,2013-01-18 18:20:00,
2013-01-18 10:28:00,51.0,0.0,30.31,NE,44,0.0,0.0,19,-99.99,,,-99.99,,2013-01-18 18:28:00,
2013-01-18 10:36:00,52.0,0.0,30.31,NNW,340,0.0,0.0,19,-99.99,,,-99.99,,2013-01-18 18:36:00,
2013-01-18 10:44:00,52.0,0.0,30.31,ESE,119,0.0,0.0,15,-99.99,,,-99.99,,2013-01-18 18:44:00,
2013-01-18 10:52:00,52.0,0.0,30.30,ESE,113,0.0,0.0,16,-99.99,,,-99.99,,2013-01-18 18:52:00,
2013-01-18 11:00:00,53.0,0.0,30.30,South,179,9.0,9.0,16,-99.99,,,-99.99,,2013-01-18 19:00:00,
2013-01-18 11:08:00,53.0,0.0,30.30,NNW,342,0.0,1.0,18,-99.99,,,-99.99,,2013-01-18 19:08:00,
2013-01-18 11:16:00,54.0,0.0,30.29,South,177,7.0,7.0,16,-99.99,,,-99.99,,2013-01-18 19:16:00,
2013-01-18 11:24:00,54.0,0.0,30.29,SW,231,10.0,12.0,14,-99.99,,,-99.99,,2013-01-18 19:24:00,
2013-01-18 11:32:00,54.0,0.0,30.28,South,185,10.0,10.0,14,-99.99,,,-99.99,,2013-01-18 19:32:00,
2013-01-18 11:40:00,55.0,0.0,30.28,SE,127,9.0,9.0,15,-99.99,,,-99.99,,2013-01-18 19:40:00,
2013-01-18 11:48:00,54.0,0.0,30.27,SSE,147,7.0,8.0,16,-99.99,,,-99.99,,2013-01-18 19:48:00,
2013-01-18 11:56:00,55.0,0.0,30.27,SSW,199,12.0,12.0,14,-99.99,,,-99.99,,2013-01-18 19:56:00,
2013-01-18 12:04:00,56.0,0.0,30.26,NE,35,0.0,7.0,13,-99.99,,,-99.99,,2013-01-18 20:04:00,
2013-01-18 12:12:00,56.0,0.0,30.26,SSW,206,9.0,10.0,15,-99.99,,,-99.99,,2013-01-18 20:12:00,
2013-01-18 12:20:00,57.0,0.0,30.25,North,1,1.0,1.0,13,-99.99,,,-99.99,,2013-01-18 20:20:00,
2013-01-18 12:28:00,57.0,0.0,30.25,SSE,155,15.0,15.0,16,-99.99,,,-99.99,,2013-01-18 20:28:00,
2013-01-18 12:36:00,57.0,0.0,30.24,ESE,123,15.0,15.0,15,-99.99,,,-99.99,,2013-01-18 20:36:00,
2013-01-18 12:44:00,57.0,0.0,30.24,ESE,111,12.0,12.0,15,-99.99,,,-99.99,,2013-01-18 20:44:00,
2013-01-18 12:52:00,58.0,0.0,30.24,NNW,340,1.0,1.0,12,-99.99,,,-99.99,,2013-01-18 20:52:00,
2013-01-18 13:00:00,59.0,0.0,30.23,NNW,338,1.0,2.0,15,-99.99,,,-99.99,,2013-01-18 21:00:00,
2013-01-18 13:08:00,59.0,0.0,30.23,NE,55,8.0,8.0,13,-99.99,,,-99.99,,2013-01-18 21:08:00,
2013-01-18 13:16:00,58.0,0.0,30.23,SSW,213,3.0,3.0,14,-99.99,,,-99.99,,2013-01-18 21:16:00,
2013-01-18 13:24:00,59.0,0.0,30.23,SSW,193,0.0,0.0,13,-99.99,,,-99.99,,2013-01-18 21:24:00,
2013-01-18 13:32:00,59.0,0.0,30.22,South,183,5.0,5.0,14,-99.99,,,-99.99,,2013-01-18 21:32:00,
2013-01-18 13:40:00,61.0,0.0,30.22,North,4,0.0,0.0,12,-99.99,,,-99.99,,2013-01-18 21:40:00,
2013-01-18 13:48:00,60.0,0.0,30.22,SW,230,3.0,3.0,12,-99.99,,,-99.99,,2013-01-18 21:48:00,
2013-01-18 13:56:00,59.0,0.0,30.22,ESE,123,1.0,3.0,14,-99.99,,,-99.99,,2013-01-18 21:56:00,
2013-01-18 14:04:00,59.0,0.0,30.21,SW,227,6.0,6.0,11,-99.99,,,-99.99,,2013-01-18 22:04:00,
2013-01-18 14:12:00,60.0,0.0,30.21,SSW,211,8.0,8.0,12,-99.99,,,-99.99,,2013-01-18 22:12:00,
2013-01-18 14:20:00,60.0,0.0,30.21,SW,217,7.0,8.0,14,-99.99,,,-99.99,,2013-01-18 22:20:00,
2013-01-18 14:28:00,60.0,0.0,30.21,South,185,10.0,10.0,13,-99.99,,,-99.99,,2013-01-18 22:28:00,
2013-01-18 14:36:00,60.0,0.0,30.21,SSW,197,12.0,13.0,13,-99.99,,,-99.99,,2013-01-18 22:36:00,
2013-01-18 14:44:00,59.0,0.0,30.21,SW,218,6.0,8.0,14,-99.99,,,-99.99,,2013-01-18 22:44:00,
2013-01-18 14:52:00,59.0,0.0,30.20,SW,222,14.0,14.0,13,-99.99,,,-99.99,,2013-01-18 22:52:00,
2013-01-18 15:00:00,60.0,0.0,30.20,SSE,163,8.0,8.0,11,-99.99,,,-99.99,,2013-01-18 23:00:00,
2013-01-18 15:16:00,60.0,0.0,30.20,SW,214,13.0,13.0,11,-99.99,,,-99.99,,2013-01-18 23:16:00,
2013-01-18 15:24:00,60.0,0.0,30.20,SW,224,8.0,13.0,11,-99.99,,,-99.99,,2013-01-18 23:24:00,
2013-01-18 15:32:00,60.0,0.0,30.20,WSW,240,9.0,9.0,13,-99.99,,,-99.99,,2013-01-18 23:32:00,
2013-01-18 15:40:00,59.0,0.0,30.20,SW,234,9.0,10.0,13,-99.99,,,-99.99,,2013-01-18 23:40:00,
2013-01-18 15:48:00,58.0,0.0,30.20,South,186,9.0,12.0,15,-99.99,,,-99.99,,2013-01-18 23:48:00,
2013-01-18 15:56:00,58.0,0.0,30.20,South,183,12.0,12.0,12,-99.99,,,-99.99,,2013-01-18 23:56:00,
2013-01-18 16:04:00,58.0,0.0,30.20,SSW,207,9.0,9.0,12,-99.99,,,-99.99,,2013-01-19 00:04:00,
2013-01-18 16:12:00,58.0,0.0,30.20,NNE,21,0.0,0.0,12,-99.99,,,-99.99,,2013-01-19 00:12:00,
2013-01-18 16:20:00,58.0,0.0,30.20,NNW,341,0.0,0.0,15,-99.99,,,-99.99,,2013-01-19 00:20:00,
2013-01-18 16:28:00,57.0,0.0,30.20,ESE,115,0.0,0.0,13,-99.99,,,-99.99,,2013-01-19 00:28:00,
2013-01-18 16:36:00,57.0,0.0,30.20,ESE,116,0.0,0.0,12,-99.99,,,-99.99,,2013-01-19 00:36:00,
2013-01-18 16:44:00,56.0,0.0,30.20,SSE,158,0.0,0.0,13,-99.99,,,-99.99,,2013-01-19 00:44:00,
2013-01-18 16:52:00,56.0,0.0,30.20,ENE,64,0.0,0.0,15,-99.99,,,-99.99,,2013-01-19 00:52:00,
2013-01-18 17:00:00,55.0,0.0,30.21,NNW,340,0.0,1.0,17,-99.99,,,-99.99,,2013-01-19 01:00:00,
2013-01-18 17:08:00,54.0,0.0,30.21,NNW,340,0.0,0.0,15,-99.99,,,-99.99,,2013-01-19 01:08:00,
2013-01-18 17:16:00,54.0,0.0,30.21,NE,54,0.0,0.0,14,-99.99,,,-99.99,,2013-01-19 01:16:00,
2013-01-18 17:24:00,53.0,0.0,30.21,East,85,0.0,0.0,14,-99.99,,,-99.99,,2013-01-19 01:24:00,
2013-01-18 17:32:00,51.0,0.0,30.21,ENE,64,0.0,0.0,16,-99.99,,,-99.99,,2013-01-19 01:32:00,
2013-01-18 17:40:00,51.0,0.0,30.21,North,0,0.0,0.0,17,-99.99,,,-99.99,,2013-01-19 01:40:00,
2013-01-18 17:48:00,50.0,0.0,30.21,NNW,337,0.0,0.0,16,-99.99,,,-99.99,,2013-01-19 01:48:00,
2013-01-18 17:56:00,49.0,0.0,30.22,NNW,329,2.0,2.0,15,-99.99,,,-99.99,,2013-01-19 01:56:00,
2013-01-18 18:04:00,49.0,0.0,30.22,NNW,332,3.0,3.0,18,-99.99,,,-99.99,,2013-01-19 02:04:00,
2013-01-18 18:12:00,49.0,0.0,30.22,NNW,333,0.0,0.0,18,-99.99,,,-99.99,,2013-01-19 02:12:00,
2013-01-18 18:20:00,48.0,0.0,30.22,SE,145,0.0,0.0,16,-99.99,,,-99.99,,2013-01-19 02:20:00,
2013-01-18 18:28:00,47.0,0.0,30.22,NNW,338,0.0,0.0,17,-99.99,,,-99.99,,2013-01-19 02:28:00,
2013-01-18 18:36:00,47.0,0.0,30.22,NNW,339,0.0,0.0,16,-99.99,,,-99.99,,2013-01-19 02:36:00,
2013-01-18 18:44:00,48.0,0.0,30.22,NNW,337,0.0,0.0,16,-99.99,,,-99.99,,2013-01-19 02:44:00,
2013-01-18 18:52:00,49.0,0.0,30.22,NW,326,3.0,6.0,17,-99.99,,,-99.99,,2013-01-19 02:52:00,
2013-01-18 19:00:00,46.0,0.0,30.22,WNW,302,5.0,5.0,16,-99.99,,,-99.99,,2013-01-19 03:00:00,
2013-01-18 19:08:00,43.0,0.0,30.22,NW,318,6.0,6.0,20,-99.99,,,-99.99,,2013-01-19 03:08:00,
2013-01-18 19:16:00,42.0,0.0,30.23,NW,311,8.0,9.0,18,-99.99,,,-99.99,,2013-01-19 03:16:00,
2013-01-18 19:24:00,41.0,0.0,30.23,NW,323,9.0,9.0,18,-99.99,,,-99.99,,2013-01-19 03:24:00,
2013-01-18 19:32:00,40.0,0.0,30.23,NW,313,12.0,12.0,19,-99.99,,,-99.99,,2013-01-19 03:32:00,
2013-01-18 19:40:00,39.0,0.0,30.23,NW,324,12.0,13.0,18,-99.99,,,-99.99,,2013-01-19 03:40:00,
2013-01-18 19:48:00,37.0,0.0,30.23,NW,317,10.0,10.0,20,-99.99,,,-99.99,,2013-01-19 03:48:00,
2013-01-18 19:56:00,37.0,0.0,30.24,NW,319,14.0,14.0,22,-99.99,,,-99.99,,2013-01-19 03:56:00,
2013-01-18 20:04:00,37.0,0.0,30.24,NW,312,14.0,14.0,22,-99.99,,,-99.99,,2013-01-19 04:04:00,
2013-01-18 20:12:00,38.0,0.0,30.24,NW,311,13.0,13.0,22,-99.99,,,-99.99,,2013-01-19 04:12:00,
2013-01-18 20:20:00,38.0,0.0,30.24,NW,324,14.0,14.0,22,-99.99,,,-99.99,,2013-01-19 04:20:00,
2013-01-18 20:28:00,37.0,0.0,30.24,NW,321,12.0,12.0,22,-99.99,,,-99.99,,2013-01-19 04:28:00,
2013-01-18 20:36:00,37.0,0.0,30.24,NW,323,13.0,13.0,22,-99.99,,,-99.99,,2013-01-19 04:36:00,
2013-01-18 20:44:00,36.0,0.0,30.24,NW,323,13.0,13.0,23,-99.99,,,-99.99,,2013-01-19 04:44:00,
2013-01-18 20:52:00,34.0,0.0,30.25,NW,314,14.0,14.0,24,-99.99,,,-99.99,,2013-01-19 04:52:00,
2013-01-18 21:00:00,33.0,0.0,30.25,NW,317,16.0,16.0,26,-99.99,,,-99.99,,2013-01-19 05:00:00,
2013-01-18 21:04:00,33.0,0.0,30.25,NW,318,16.0,16.0,25,-99.99,,,-99.99,,2013-01-19 05:04:00,
2013-01-18 21:12:00,33.0,0.0,30.25,NW,324,14.0,14.0,24,-99.99,,,-99.99,,2013-01-19 05:12:00,
2013-01-18 21:13:00,33.0,0.0,30.25,NW,324,14.0,14.0,24,-99.99,,,-99.99,,2013-01-19 05:13:00,
2013-01-18 21:20:00,33.0,0.0,30.25,WNW,302,15.0,15.0,25,-99.99,,,-99.99,,2013-01-19 05:20:00,
2013-01-18 21:28:00,34.0,0.0,30.25,NW,309,10.0,12.0,23,-99.99,,,-99.99,,2013-01-19 05:28:00,
2013-01-18 21:36:00,33.0,0.0,30.25,WNW,287,16.0,16.0,25,-99.99,,,-99.99,,2013-01-19 05:36:00,
2013-01-18 21:44:00,32.0,0.0,30.25,NW,312,17.0,17.0,23,-99.99,,,-99.99,,2013-01-19 05:44:00,
2013-01-18 21:52:00,31.0,0.0,30.26,NW,313,15.0,15.0,24,-99.99,,,-99.99,,2013-01-19 05:52:00,
2013-01-18 22:00:00,32.0,0.0,30.26,NW,314,14.0,14.0,27,-99.99,,,-99.99,,2013-01-19 06:00:00,
2013-01-18 22:08:00,32.0,0.0,30.25,NW,325,16.0,16.0,26,-99.99,,,-99.99,,2013-01-19 06:08:00,
2013-01-18 22:16:00,34.0,0.0,30.26,NW,314,13.0,14.0,26,-99.99,,,-99.99,,2013-01-19 06:16:00,
2013-01-18 22:24:00,35.0,0.0,30.25,NW,318,13.0,14.0,23,-99.99,,,-99.99,,2013-01-19 06:24:00,
2013-01-18 22:32:00,34.0,0.0,30.25,NW,319,10.0,12.0,22,-99.99,,,-99.99,,2013-01-19 06:32:00,
2013-01-18 22:40:00,33.0,0.0,30.25,NW,305,12.0,12.0,27,-99.99,,,-99.99,,2013-01-19 06:40:00,
2013-01-18 22:48:00,32.0,0.0,30.25,NW,310,13.0,13.0,27,-99.99,,,-99.99,,2013-01-19 06:48:00,
2013-01-18 22:56:00,31.0,0.0,30.25,NW,321,12.0,13.0,26,-99.99,,,-99.99,,2013-01-19 06:56:00,
2013-01-18 23:04:00,31.0,0.0,30.25,NW,321,16.0,16.0,24,-99.99,,,-99.99,,2013-01-19 07:04:00,
2013-01-18 23:12:00,32.0,0.0,30.25,NW,325,15.0,16.0,25,-99.99,,,-99.99,,2013-01-19 07:12:00,
2013-01-18 23:20:00,34.0,0.0,30.25,NW,319,15.0,16.0,28,-99.99,,,-99.99,,2013-01-19 07:20:00,
2013-01-18 23:28:00,34.0,0.0,30.25,NW,320,12.0,12.0,27,-99.99,,,-99.99,,2013-01-19 07:28:00,
2013-01-18 23:36:00,31.0,0.0,30.25,NW,312,12.0,12.0,27,-99.99,,,-99.99,,2013-01-19 07:36:00,
2013-01-18 23:44:00,30.0,0.0,30.25,NW,312,13.0,14.0,28,-99.99,,,-99.99,,2013-01-19 07:44:00,
2013-01-18 23:52:00,30.0,0.0,30.25,NW,320,13.0,14.0,27,-99.99,,,-99.99,,2013-01-19 07:52:00,